createdAt,value
2018-12-01T00:00:17.816Z,97.50
2018-12-01T00:02:46.046Z,97.60
2018-12-01T00:05:14.343Z,97.50
2018-12-01T00:07:42.629Z,97.40
2018-12-01T00:10:10.973Z,97.40
2018-12-01T00:12:39.279Z,97.50
2018-12-01T00:15:09.814Z,97.50
2018-12-01T00:17:38.069Z,97.60
2018-12-01T00:20:09.480Z,97.60
2018-12-01T00:22:37.759Z,97.60
2018-12-01T00:25:06.954Z,97.70
2018-12-01T00:27:35.240Z,97.80
2018-12-01T00:30:04.364Z,97.90
2018-12-01T00:32:32.605Z,98.30
2018-12-01T00:35:00.828Z,98.10
2018-12-01T00:37:29.098Z,98.10
2018-12-01T00:39:57.404Z,98.20
2018-12-01T00:42:25.675Z,98.30
2018-12-01T00:44:53.947Z,98.30
2018-12-01T00:47:22.270Z,98.40
2018-12-01T00:49:50.562Z,98.50
2018-12-01T00:52:19.298Z,98.50
2018-12-01T00:54:47.537Z,98.60
2018-12-01T00:57:15.901Z,98.60
2018-12-01T00:59:44.141Z,98.70
2018-12-01T01:02:17.812Z,98.70
2018-12-01T01:04:46.053Z,98.70
2018-12-01T01:07:14.379Z,98.80
2018-12-01T01:09:42.646Z,98.80
2018-12-01T01:12:10.917Z,98.90
2018-12-01T01:14:39.168Z,98.90
2018-12-01T01:17:07.470Z,98.90
2018-12-01T01:19:35.777Z,99.00
2018-12-01T01:22:04.070Z,99.00
2018-12-01T01:24:32.334Z,99.10
2018-12-01T01:27:00.665Z,99.20
2018-12-01T01:29:29.096Z,99.20
2018-12-01T01:31:57.466Z,99.20
2018-12-01T01:34:25.780Z,99.30
2018-12-01T01:36:54.069Z,99.30
2018-12-01T01:39:22.437Z,99.30
2018-12-01T01:41:50.717Z,99.40
2018-12-01T01:44:18.997Z,99.40
2018-12-01T01:46:47.257Z,99.50
2018-12-01T01:49:15.525Z,99.50
2018-12-01T01:51:43.795Z,99.40
2018-12-01T01:54:12.085Z,99.30
2018-12-01T01:56:40.656Z,99.10
2018-12-01T01:59:08.968Z,98.90
2018-12-01T02:01:37.317Z,98.80
2018-12-01T02:04:06.598Z,99.00
2018-12-01T02:06:34.990Z,98.70
2018-12-01T02:09:03.470Z,98.60
2018-12-01T02:11:31.711Z,98.60
2018-12-01T02:13:59.991Z,98.40
2018-12-01T02:16:28.322Z,98.30
2018-12-01T02:18:56.589Z,98.20
2018-12-01T02:21:25.888Z,98.30
2018-12-01T02:23:54.261Z,98.30
2018-12-01T02:26:22.543Z,98.40
2018-12-01T02:28:50.815Z,98.60
2018-12-01T02:31:19.095Z,98.60
2018-12-01T02:33:47.355Z,98.60
2018-12-01T02:36:15.622Z,98.80
2018-12-01T02:38:43.942Z,98.80
2018-12-01T02:41:12.199Z,98.80
2018-12-01T02:43:40.573Z,98.90
2018-12-01T02:46:22.681Z,99.00
2018-12-01T02:48:51.048Z,99.00
2018-12-01T02:51:19.299Z,98.90
2018-12-01T02:53:47.614Z,98.90
2018-12-01T02:56:15.881Z,99.00
2018-12-01T02:58:44.146Z,99.10
2018-12-01T03:01:12.438Z,99.10
2018-12-01T03:03:40.689Z,99.20
2018-12-01T03:06:09.041Z,99.20
2018-12-01T03:08:37.272Z,99.30
2018-12-01T03:11:05.567Z,99.30
2018-12-01T03:13:33.831Z,99.50
2018-12-01T03:16:02.098Z,99.50
2018-12-01T03:18:30.362Z,99.50
2018-12-01T03:20:58.614Z,99.60
2018-12-01T03:23:26.854Z,99.70
2018-12-01T03:25:55.713Z,99.70
2018-12-01T03:28:24.001Z,99.80
2018-12-01T03:30:52.265Z,99.70
2018-12-01T03:33:20.576Z,99.90
2018-12-01T03:35:48.901Z,99.70
2018-12-01T03:38:17.245Z,99.70
2018-12-01T03:40:48.381Z,99.70
2018-12-01T03:43:16.917Z,99.60
2018-12-01T03:45:45.241Z,99.60
2018-12-01T03:48:13.490Z,99.70
2018-12-01T03:50:41.777Z,99.80
2018-12-01T03:53:11.239Z,99.90
2018-12-01T03:55:39.505Z,99.80
2018-12-01T03:58:07.801Z,99.70
2018-12-01T04:00:36.679Z,99.80
2018-12-01T04:03:06.198Z,99.80
2018-12-01T04:05:34.715Z,99.70
2018-12-01T04:08:02.945Z,99.80
2018-12-01T04:10:31.222Z,99.80
2018-12-01T04:12:59.532Z,99.80
2018-12-01T04:15:27.774Z,99.90
2018-12-01T04:17:56.063Z,99.80
2018-12-01T04:20:24.311Z,99.90
2018-12-01T04:22:52.540Z,99.90
2018-12-01T04:25:20.802Z,99.90
2018-12-01T04:27:49.107Z,99.90
2018-12-01T04:30:19.187Z,99.90
2018-12-01T04:32:47.429Z,99.90
2018-12-01T04:35:17.449Z,99.90
2018-12-01T04:37:46.718Z,99.90
2018-12-01T04:40:14.998Z,99.90
2018-12-01T04:42:44.435Z,99.90
2018-12-01T04:45:12.726Z,99.90
2018-12-01T04:47:41.011Z,99.90
2018-12-01T04:50:10.584Z,99.90
2018-12-01T04:52:39.033Z,99.90
2018-12-01T04:55:12.569Z,99.90
2018-12-01T04:57:40.826Z,99.70
2018-12-01T05:00:11.633Z,99.60
2018-12-01T05:02:39.926Z,99.60
2018-12-01T05:05:09.725Z,99.60
2018-12-01T05:07:38.010Z,99.70
2018-12-01T05:10:09.551Z,99.60
2018-12-01T05:12:37.841Z,99.60
2018-12-01T05:15:11.846Z,99.60
2018-12-01T05:17:40.130Z,99.70
2018-12-01T05:20:10.945Z,99.60
2018-12-01T05:22:39.340Z,99.60
2018-12-01T05:25:08.713Z,99.60
2018-12-01T05:27:36.952Z,99.60
2018-12-01T05:30:06.357Z,99.60
2018-12-01T05:32:34.903Z,99.60
2018-12-01T05:35:03.321Z,99.70
2018-12-01T05:37:31.630Z,99.70
2018-12-01T05:39:59.916Z,99.70
2018-12-01T05:42:28.184Z,99.80
2018-12-01T05:44:56.425Z,99.80
2018-12-01T05:47:24.710Z,99.80
2018-12-01T05:49:52.963Z,99.90
2018-12-01T05:52:21.224Z,99.90
2018-12-01T05:54:49.446Z,99.90
2018-12-01T05:57:17.763Z,99.90
2018-12-01T05:59:46.069Z,99.90
2018-12-01T06:02:14.478Z,99.90
2018-12-01T06:04:42.843Z,99.90
2018-12-01T06:07:11.160Z,99.90
2018-12-01T06:09:39.404Z,99.90
2018-12-01T06:12:07.658Z,99.90
2018-12-01T06:14:35.878Z,99.90
2018-12-01T06:17:04.126Z,99.90
2018-12-01T06:19:32.401Z,99.80
2018-12-01T06:22:00.645Z,99.70
2018-12-01T06:24:28.893Z,99.60
2018-12-01T06:26:57.224Z,99.60
2018-12-01T06:29:25.541Z,99.60
2018-12-01T06:31:53.945Z,99.80
2018-12-01T06:34:22.857Z,99.80
2018-12-01T06:36:51.107Z,99.50
2018-12-01T06:39:19.352Z,99.50
2018-12-01T06:41:47.594Z,99.70
2018-12-01T06:44:15.824Z,99.70
2018-12-01T06:46:44.057Z,99.80
2018-12-01T06:49:12.312Z,99.80
2018-12-01T06:51:40.558Z,99.90
2018-12-01T06:54:08.799Z,99.80
2018-12-01T06:56:37.035Z,99.90
2018-12-01T06:59:05.339Z,99.90
2018-12-01T07:01:33.711Z,99.90
2018-12-01T07:04:01.937Z,99.90
2018-12-01T07:06:30.206Z,99.90
2018-12-01T07:08:58.578Z,99.90
2018-12-01T07:11:26.847Z,99.90
2018-12-01T07:13:55.117Z,99.90
2018-12-01T07:16:23.353Z,99.90
2018-12-01T07:19:31.178Z,99.90
2018-12-01T07:21:59.473Z,99.90
2018-12-01T07:24:27.735Z,99.90
2018-12-01T07:26:55.977Z,99.90
2018-12-01T07:29:24.249Z,99.90
2018-12-01T07:31:52.568Z,99.70
2018-12-01T07:34:20.861Z,99.70
2018-12-01T07:36:49.173Z,99.70
2018-12-01T07:39:17.530Z,99.70
2018-12-01T07:41:45.763Z,99.80
2018-12-01T07:44:13.982Z,99.80
2018-12-01T07:46:42.205Z,99.80
2018-12-01T07:49:10.473Z,99.80
2018-12-01T07:51:38.745Z,99.70
2018-12-01T07:54:07.048Z,99.70
2018-12-01T07:56:35.315Z,99.50
2018-12-01T07:59:03.565Z,99.30
2018-12-01T08:01:31.833Z,99.30
2018-12-01T08:04:00.183Z,99.30
2018-12-01T08:06:28.463Z,99.30
2018-12-01T08:08:56.811Z,99.30
2018-12-01T08:11:25.196Z,99.30
2018-12-01T08:13:53.521Z,99.40
2018-12-01T08:16:21.797Z,99.40
2018-12-01T08:18:50.194Z,99.50
2018-12-01T08:21:18.544Z,99.50
2018-12-01T08:23:46.786Z,99.60
2018-12-01T08:26:15.082Z,99.60
2018-12-01T08:28:43.453Z,99.50
2018-12-01T08:31:11.677Z,99.60
2018-12-01T08:33:40.314Z,99.30
2018-12-01T08:36:08.577Z,99.30
2018-12-01T08:38:36.830Z,99.30
2018-12-01T08:41:05.257Z,99.20
2018-12-01T08:43:33.521Z,99.10
2018-12-01T08:46:01.770Z,99.10
2018-12-01T08:48:30.045Z,99.00
2018-12-01T08:50:58.692Z,99.10
2018-12-01T08:53:26.936Z,99.00
2018-12-01T08:55:55.701Z,99.00
2018-12-01T08:58:23.972Z,98.90
2018-12-01T09:00:52.224Z,98.50
2018-12-01T09:03:23.204Z,98.60
2018-12-01T09:05:52.241Z,98.40
2018-12-01T09:08:20.553Z,98.30
2018-12-01T09:10:48.900Z,98.10
2018-12-01T09:13:17.216Z,98.00
2018-12-01T09:15:45.535Z,98.20
2018-12-01T09:18:14.352Z,98.00
2018-12-01T09:20:42.970Z,97.70
2018-12-01T09:23:11.749Z,97.70
2018-12-01T09:25:40.332Z,97.30
2018-12-01T09:28:09.510Z,97.50
2018-12-01T09:30:39.868Z,97.50
2018-12-01T09:33:08.451Z,97.50
2018-12-01T09:35:36.965Z,97.70
2018-12-01T09:38:05.710Z,97.60
2018-12-01T09:40:34.993Z,97.60
2018-12-01T09:43:03.569Z,97.60
2018-12-01T09:45:32.211Z,97.30
2018-12-01T09:48:00.839Z,97.30
2018-12-01T09:50:29.399Z,97.40
2018-12-01T09:52:58.427Z,96.90
2018-12-01T09:55:28.424Z,96.90
2018-12-01T09:57:57.633Z,96.70
2018-12-01T10:00:28.417Z,96.60
2018-12-01T10:02:56.720Z,96.60
2018-12-01T10:05:24.970Z,96.40
2018-12-01T10:07:53.228Z,96.30
2018-12-01T10:10:24.178Z,96.10
2018-12-01T10:12:54.911Z,96.20
2018-12-01T10:15:25.097Z,96.20
2018-12-01T10:17:53.719Z,96.40
2018-12-01T10:20:37.051Z,96.60
2018-12-01T10:23:09.202Z,96.70
2018-12-01T10:25:37.759Z,96.50
2018-12-01T10:28:07.316Z,96.40
2018-12-01T10:30:35.969Z,96.40
2018-12-01T10:33:04.649Z,96.10
2018-12-01T10:35:33.282Z,95.90
2018-12-01T10:38:07.598Z,95.60
2018-12-01T10:40:36.526Z,95.30
2018-12-01T10:43:05.587Z,95.10
2018-12-01T10:45:34.109Z,95.00
2018-12-01T10:48:02.756Z,94.90
2018-12-01T10:50:31.316Z,94.60
2018-12-01T10:52:59.582Z,94.40
2018-12-01T10:55:31.682Z,94.20
2018-12-01T10:58:08.373Z,94.00
2018-12-01T11:00:42.256Z,93.80
2018-12-01T11:03:16.434Z,93.60
2018-12-01T11:05:45.005Z,93.40
2018-12-01T11:08:14.574Z,93.20
2018-12-01T11:10:42.952Z,93.10
2018-12-01T11:13:11.636Z,92.90
2018-12-01T11:15:40.353Z,92.70
2018-12-01T11:18:09.084Z,92.70
2018-12-01T11:20:38.021Z,92.60
2018-12-01T11:23:06.847Z,92.50
2018-12-01T11:25:37.668Z,92.40
2018-12-01T11:28:06.402Z,92.40
2018-12-01T11:30:35.554Z,92.30
2018-12-01T11:33:04.225Z,92.10
2018-12-01T11:35:32.864Z,91.90
2018-12-01T11:38:01.432Z,91.70
2018-12-01T11:40:29.930Z,91.60
2018-12-01T11:45:35.693Z,91.30
2018-12-01T11:48:04.394Z,91.20
2018-12-01T11:50:33.037Z,91.00
2018-12-01T11:53:01.576Z,91.00
2018-12-01T11:55:31.991Z,90.90
2018-12-01T11:58:00.672Z,90.60
2018-12-01T12:00:29.092Z,90.60
2018-12-01T12:02:57.553Z,90.50
2018-12-01T12:05:25.797Z,90.30
2018-12-01T12:08:17.413Z,90.10
2018-12-01T12:10:45.726Z,89.70
2018-12-01T12:13:14.137Z,88.80
2018-12-01T12:15:42.439Z,88.50
2018-12-01T12:18:10.857Z,88.20
2018-12-01T12:20:39.209Z,88.10
2018-12-01T12:23:07.818Z,87.10
2018-12-01T12:25:36.144Z,86.40
2018-12-01T12:28:04.432Z,85.00
2018-12-01T12:30:32.739Z,82.80
2018-12-01T12:33:00.983Z,81.50
2018-12-01T12:35:29.306Z,80.40
2018-12-01T12:37:57.581Z,79.70
2018-12-01T12:40:26.505Z,78.70
2018-12-01T12:42:58.679Z,78.30
2018-12-01T12:45:26.985Z,78.20
2018-12-01T12:47:55.665Z,78.30
2018-12-01T12:50:24.077Z,78.50
2018-12-01T12:52:54.357Z,78.90
2018-12-01T12:55:25.517Z,79.00
2018-12-01T12:57:54.011Z,79.40
2018-12-01T13:00:23.133Z,79.70
2018-12-01T13:02:57.623Z,80.30
2018-12-01T13:05:27.973Z,80.60
2018-12-01T13:07:56.344Z,80.90
2018-12-01T13:10:25.392Z,81.30
2018-12-01T13:12:53.679Z,81.60
2018-12-01T13:15:21.975Z,81.70
2018-12-01T13:17:50.268Z,81.80
2018-12-01T13:20:21.522Z,82.00
2018-12-01T13:22:54.249Z,82.10
2018-12-01T13:25:22.917Z,82.00
2018-12-01T13:28:10.088Z,82.30
2018-12-01T13:30:41.465Z,82.20
2018-12-01T13:33:09.709Z,82.30
2018-12-01T13:35:38.649Z,82.20
2018-12-01T13:38:07.509Z,82.10
2018-12-01T13:40:35.848Z,82.00
2018-12-01T13:43:04.497Z,82.20
2018-12-01T13:45:32.764Z,82.70
2018-12-01T13:48:00.985Z,83.00
2018-12-01T13:50:29.245Z,83.10
2018-12-01T13:53:00.448Z,83.50
2018-12-01T13:55:28.762Z,83.50
2018-12-01T13:57:57.014Z,83.80
2018-12-01T14:00:26.362Z,84.20
2018-12-01T14:02:54.630Z,84.30
2018-12-01T14:05:22.914Z,84.40
2018-12-01T14:07:51.237Z,84.70
2018-12-01T14:10:21.465Z,84.80
2018-12-01T14:12:52.111Z,84.90
2018-12-01T14:15:21.368Z,85.30
2018-12-01T14:17:52.778Z,85.50
2018-12-01T14:20:21.205Z,85.60
2018-12-01T14:22:50.307Z,85.70
2018-12-01T14:25:19.733Z,85.50
2018-12-01T14:27:50.313Z,85.70
2018-12-01T14:30:18.585Z,86.00
2018-12-01T14:32:46.909Z,86.30
2018-12-01T14:35:24.095Z,86.60
2018-12-01T14:37:54.147Z,86.90
2018-12-01T14:40:22.455Z,86.90
2018-12-01T14:42:50.787Z,87.30
2018-12-01T14:45:19.080Z,87.50
2018-12-01T14:47:47.358Z,87.70
2018-12-01T14:50:16.171Z,87.80
2018-12-01T14:52:45.138Z,88.00
2018-12-01T14:55:15.868Z,88.10
2018-12-01T14:57:44.245Z,88.20
2018-12-01T15:00:22.286Z,88.40
2018-12-01T15:02:51.215Z,88.70
2018-12-01T15:05:19.510Z,89.10
2018-12-01T15:07:48.451Z,89.30
2018-12-01T15:10:21.664Z,90.20
2018-12-01T15:12:49.943Z,90.00
2018-12-01T15:15:21.489Z,90.40
2018-12-01T15:17:49.764Z,90.70
2018-12-01T15:20:19.025Z,91.00
2018-12-01T15:22:55.205Z,91.40
2018-12-01T15:25:26.568Z,91.80
2018-12-01T15:27:54.827Z,92.00
2018-12-01T15:30:24.932Z,92.20
2018-12-01T15:33:14.484Z,92.60
2018-12-01T15:35:44.021Z,92.90
2018-12-01T15:38:12.266Z,93.60
2018-12-01T15:40:42.255Z,93.70
2018-12-01T15:43:10.477Z,94.00
2018-12-01T15:45:38.793Z,94.40
2018-12-01T15:48:07.650Z,94.70
2018-12-01T15:50:36.704Z,95.00
2018-12-01T15:53:08.030Z,95.40
2018-12-01T15:55:36.325Z,95.70
2018-12-01T15:58:04.611Z,95.90
2018-12-01T16:00:32.939Z,96.10
2018-12-01T16:03:01.237Z,96.50
2018-12-01T16:05:29.597Z,96.70
2018-12-01T16:07:58.379Z,96.90
2018-12-01T16:10:26.752Z,97.10
2018-12-01T16:13:26.841Z,97.20
2018-12-01T16:16:05.317Z,97.30
2018-12-01T16:18:33.632Z,97.60
2018-12-01T16:21:01.909Z,97.60
2018-12-01T16:23:30.205Z,97.80
2018-12-01T16:25:58.506Z,98.10
2018-12-01T16:28:26.738Z,98.00
2018-12-01T16:30:55.328Z,98.10
2018-12-01T16:33:23.568Z,98.10
2018-12-01T16:35:51.969Z,98.10
2018-12-01T16:38:22.644Z,97.90
2018-12-01T16:40:57.954Z,98.00
2018-12-01T16:43:27.626Z,97.80
2018-12-01T16:45:55.920Z,97.80
2018-12-01T16:48:24.242Z,97.70
2018-12-01T16:50:52.890Z,97.50
2018-12-01T16:53:22.138Z,97.60
2018-12-01T16:55:50.645Z,97.80
2018-12-01T16:58:19.101Z,97.60
2018-12-01T17:00:47.360Z,97.50
2018-12-01T17:03:15.803Z,97.70
2018-12-01T17:05:50.162Z,97.70
2018-12-01T17:08:18.592Z,97.90
2018-12-01T17:10:47.014Z,97.80
2018-12-01T17:13:15.548Z,97.80
2018-12-01T17:15:43.969Z,97.80
2018-12-01T17:18:12.269Z,97.90
2018-12-01T17:20:40.759Z,97.90
2018-12-01T17:23:12.383Z,98.10
2018-12-01T17:25:40.885Z,98.00
2018-12-01T17:28:13.329Z,97.90
2018-12-01T17:30:42.665Z,98.00
2018-12-01T17:33:11.021Z,98.00
2018-12-01T17:35:39.341Z,98.10
2018-12-01T17:38:10.083Z,98.20
2018-12-01T17:40:41.438Z,98.80
2018-12-01T17:43:11.478Z,98.40
2018-12-01T17:45:39.804Z,98.60
2018-12-01T17:48:08.529Z,98.80
2018-12-01T17:50:36.847Z,99.10
2018-12-01T17:53:10.177Z,99.10
2018-12-01T17:55:33.663Z,99.50
2018-12-01T17:58:02.079Z,99.70
2018-12-01T18:00:30.782Z,99.90
2018-12-01T18:03:00.693Z,99.90
2018-12-01T18:05:33.904Z,99.90
2018-12-01T18:08:02.243Z,99.90
2018-12-01T18:10:30.515Z,99.90
2018-12-01T18:12:58.921Z,99.90
2018-12-01T18:15:27.268Z,99.90
2018-12-01T18:17:55.884Z,99.90
2018-12-01T18:20:24.212Z,99.90
2018-12-01T18:22:54.690Z,99.90
2018-12-01T18:25:23.011Z,99.90
2018-12-01T18:27:53.298Z,99.90
2018-12-01T18:30:26.277Z,99.90
2018-12-01T18:32:55.310Z,99.80
2018-12-01T18:35:23.720Z,99.80
2018-12-01T18:37:51.985Z,99.70
2018-12-01T18:40:22.289Z,99.70
2018-12-01T18:42:51.404Z,99.70
2018-12-01T18:45:21.330Z,99.50
2018-12-01T18:47:49.664Z,99.40
2018-12-01T18:50:20.067Z,99.60
2018-12-01T18:52:54.594Z,99.60
2018-12-01T18:55:23.283Z,99.40
2018-12-01T18:57:51.766Z,99.60
2018-12-01T19:00:22.967Z,99.50
2018-12-01T19:02:51.323Z,99.40
2018-12-01T19:05:20.712Z,99.40
2018-12-01T19:07:49.086Z,99.40
2018-12-01T19:10:18.573Z,99.50
2018-12-01T19:12:47.146Z,99.40
2018-12-01T19:15:16.581Z,99.50
2018-12-01T19:17:46.082Z,99.60
2018-12-01T19:20:15.388Z,99.40
2018-12-01T19:22:43.994Z,99.40
2018-12-01T19:25:14.519Z,99.40
2018-12-01T19:27:42.829Z,99.40
2018-12-01T19:30:16.534Z,99.40
2018-12-01T19:32:46.270Z,99.10
2018-12-01T19:35:15.600Z,99.00
2018-12-01T19:37:45.194Z,98.90
2018-12-01T19:40:16.730Z,98.80
2018-12-01T19:42:45.013Z,98.70
2018-12-01T19:45:13.301Z,98.60
2018-12-01T19:47:41.578Z,98.50
2018-12-01T19:50:13.751Z,98.40
2018-12-01T19:52:42.099Z,98.50
2018-12-01T19:55:11.776Z,98.50
2018-12-01T19:57:40.334Z,98.40
2018-12-01T20:00:16.312Z,98.30
2018-12-01T20:02:45.300Z,98.30
2018-12-01T20:05:15.541Z,98.20
2018-12-01T20:07:43.967Z,98.20
2018-12-01T20:10:15.686Z,97.90
2018-12-01T20:12:45.743Z,97.80
2018-12-01T20:15:21.098Z,97.70
2018-12-01T20:17:53.229Z,97.60
2018-12-01T20:20:21.907Z,97.50
2018-12-01T20:22:50.395Z,97.30
2018-12-01T20:25:18.787Z,97.20
2018-12-01T20:27:47.166Z,97.00
2018-12-01T20:30:18.865Z,96.80
2018-12-01T20:32:47.197Z,96.70
2018-12-01T20:35:29.050Z,96.50
2018-12-01T20:38:01.021Z,96.40
2018-12-01T20:40:30.165Z,96.20
2018-12-01T20:42:58.435Z,96.00
2018-12-01T20:45:26.777Z,96.00
2018-12-01T20:47:55.153Z,96.00
2018-12-01T20:50:23.423Z,95.90
2018-12-01T20:52:51.852Z,95.90
2018-12-01T20:55:23.939Z,95.90
2018-12-01T20:57:54.092Z,96.20
2018-12-01T21:00:22.594Z,95.80
2018-12-01T21:02:50.868Z,95.90
2018-12-01T21:05:21.645Z,95.70
2018-12-01T21:07:50.132Z,95.80
2018-12-01T21:10:21.346Z,95.70
2018-12-01T21:12:49.745Z,95.70
2018-12-01T21:15:18.139Z,95.70
2018-12-01T21:17:46.343Z,95.80
2018-12-01T21:20:16.791Z,95.70
2018-12-01T21:22:46.486Z,95.80
2018-12-01T21:25:17.110Z,95.80
2018-12-01T21:27:45.405Z,95.80
2018-12-01T21:30:18.989Z,95.90
2018-12-01T21:32:48.825Z,95.80
2018-12-01T21:35:17.142Z,95.80
2018-12-01T21:37:45.378Z,95.80
2018-12-01T21:40:18.922Z,95.80
2018-12-01T21:42:47.186Z,95.90
2018-12-01T21:45:16.547Z,95.80
2018-12-01T21:47:44.829Z,95.80
2018-12-01T21:50:18.099Z,95.80
2018-12-01T21:52:51.724Z,95.80
2018-12-01T21:55:20.126Z,95.80
2018-12-01T21:57:48.994Z,95.90
2018-12-01T22:00:33.401Z,95.80
2018-12-01T22:03:06.649Z,95.70
2018-12-01T22:05:40.096Z,95.80
2018-12-01T22:08:10.190Z,95.80
2018-12-01T22:10:38.927Z,95.80
2018-12-01T22:13:08.342Z,95.70
2018-12-01T22:15:36.587Z,95.70
2018-12-01T22:18:04.880Z,95.70
2018-12-01T22:20:33.133Z,95.50
2018-12-01T22:23:02.459Z,95.50
2018-12-01T22:25:30.915Z,95.50
2018-12-01T22:27:59.175Z,95.60
2018-12-01T22:30:27.726Z,95.40
2018-12-01T22:32:58.891Z,95.50
2018-12-01T22:35:28.423Z,95.50
2018-12-01T22:37:57.585Z,95.40
2018-12-01T22:40:29.204Z,95.60
2018-12-01T22:43:02.753Z,95.40
2018-12-01T22:45:31.518Z,95.40
2018-12-01T22:48:01.102Z,95.70
2018-12-01T22:50:29.465Z,95.50
2018-12-01T22:52:58.010Z,95.50
2018-12-01T22:55:28.605Z,95.50
2018-12-01T22:58:01.684Z,95.50
2018-12-01T23:00:40.464Z,95.50
2018-12-01T23:03:09.399Z,95.60
2018-12-01T23:05:37.632Z,96.00
2018-12-01T23:08:09.366Z,95.70
2018-12-01T23:10:37.630Z,95.70
2018-12-01T23:13:06.681Z,96.00
2018-12-01T23:15:35.092Z,96.10
2018-12-01T23:18:03.612Z,96.10
2018-12-01T23:20:31.878Z,96.10
2018-12-01T23:23:00.191Z,96.20
2018-12-01T23:25:28.612Z,96.10
2018-12-01T23:27:56.855Z,96.20
2018-12-01T23:30:29.121Z,96.10
2018-12-01T23:36:32.270Z,96.10
2018-12-01T23:39:05.614Z,96.10
2018-12-01T23:41:33.927Z,96.10
2018-12-01T23:44:02.571Z,96.30
2018-12-01T23:46:30.857Z,96.30
2018-12-01T23:48:59.143Z,96.20
2018-12-01T23:51:27.480Z,96.20
2018-12-01T23:53:55.805Z,96.30
2018-12-01T23:56:24.253Z,96.30
2018-12-01T23:58:52.547Z,96.10
